createdAt,value
2023-01-30T00:07:42.743Z,98551.30
2023-01-30T00:17:48.357Z,98535.55
2023-01-30T00:27:53.723Z,98519.70
2023-01-30T00:37:59.700Z,98507.05
2023-01-30T00:48:05.391Z,98501.29
2023-01-30T00:58:11.178Z,98496.92
2023-01-30T01:08:16.970Z,98477.24
2023-01-30T01:18:22.407Z,98454.04
2023-01-30T01:28:28.029Z,98420.05
2023-01-30T01:38:33.383Z,98390.55
2023-01-30T01:48:37.844Z,98352.15
2023-01-30T01:58:44.639Z,98319.73
2023-01-30T02:08:51.808Z,98301.88
2023-01-30T02:18:57.539Z,98282.02
2023-01-30T02:29:20.534Z,98257.18
2023-01-30T02:39:26.457Z,98255.92
2023-01-30T02:49:33.651Z,98238.73
2023-01-30T02:59:41.688Z,98237.45
2023-01-30T03:09:47.731Z,98241.42
2023-01-30T03:19:52.047Z,98221.96
2023-01-30T03:29:57.513Z,98185.92
2023-01-30T03:40:03.450Z,98147.38
2023-01-30T03:50:07.885Z,98139.37
2023-01-30T04:00:14.727Z,98122.80
2023-01-30T04:10:20.279Z,98104.48
2023-01-30T04:20:25.133Z,98073.98
2023-01-30T04:30:29.663Z,98040.83
2023-01-30T04:40:35.456Z,98036.89
2023-01-30T04:50:41.438Z,98032.38
2023-01-30T05:00:47.270Z,98026.96
2023-01-30T05:10:52.994Z,98023.62
2023-01-30T05:20:58.623Z,98014.03
2023-01-30T05:31:02.825Z,97993.86
2023-01-30T05:41:09.712Z,97943.31
2023-01-30T05:51:17.458Z,97917.38
2023-01-30T06:01:24.352Z,97918.26
2023-01-30T06:11:29.904Z,97899.02
2023-01-30T06:21:35.448Z,97884.16
2023-01-30T06:31:41.199Z,97858.33
2023-01-30T06:41:46.870Z,97868.66
2023-01-30T06:51:52.458Z,97854.01
2023-01-30T07:01:58.180Z,97819.20
2023-01-30T07:12:03.865Z,97816.82
2023-01-30T07:22:09.322Z,97802.31
2023-01-30T07:32:16.220Z,97789.80
2023-01-30T07:42:21.525Z,97786.05
2023-01-30T07:52:27.274Z,97770.87
2023-01-30T08:02:33.381Z,97748.02
2023-01-30T08:12:39.463Z,97744.14
2023-01-30T08:22:45.085Z,97738.08
2023-01-30T08:32:50.995Z,97726.81
2023-01-30T08:42:56.935Z,97714.40
2023-01-30T08:53:04.538Z,97702.84
2023-01-30T09:03:10.557Z,97696.88
2023-01-30T09:13:17.337Z,97679.36
2023-01-30T09:23:22.851Z,97668.81
2023-01-30T09:33:28.405Z,97657.11
2023-01-30T09:43:35.515Z,97648.59
2023-01-30T09:53:41.546Z,97635.63
2023-01-30T10:03:48.809Z,97628.53
2023-01-30T10:13:59.562Z,97621.24
2023-01-30T10:24:09.618Z,97601.50
2023-01-30T10:34:18.534Z,97588.48
2023-01-30T10:44:23.203Z,97568.70
2023-01-30T10:54:33.092Z,97554.23
2023-01-30T11:04:37.538Z,97533.95
2023-01-30T11:14:54.822Z,97525.59
2023-01-30T11:25:02.391Z,97510.40
2023-01-30T11:35:13.087Z,97486.77
2023-01-30T11:45:20.401Z,97473.39
2023-01-30T11:55:26.317Z,97466.77
2023-01-30T12:05:32.276Z,97438.45
2023-01-30T12:15:39.268Z,97431.45
2023-01-30T12:25:44.858Z,97426.39
2023-01-30T12:35:50.322Z,97416.33
2023-01-30T12:45:56.318Z,97409.36
2023-01-30T12:56:19.296Z,97399.63
2023-01-30T13:06:25.687Z,97398.66
2023-01-30T13:16:30.055Z,97403.28
2023-01-30T13:26:40.065Z,97395.89
2023-01-30T13:36:48.573Z,97393.21
2023-01-30T13:46:55.867Z,97382.57
2023-01-30T13:57:00.316Z,97368.48
2023-01-30T14:07:09.758Z,97360.75
2023-01-30T14:17:16.650Z,97363.11
2023-01-30T14:27:24.560Z,97357.11
2023-01-30T14:37:47.658Z,97364.66
2023-01-30T14:48:13.466Z,97370.95
2023-01-30T14:58:19.711Z,97381.59
2023-01-30T15:08:27.037Z,97399.23
2023-01-30T15:18:37.021Z,97419.86
2023-01-30T15:28:42.446Z,97423.99
2023-01-30T15:38:47.925Z,97428.23
2023-01-30T15:49:07.380Z,97432.45
2023-01-30T15:59:13.603Z,97437.58
2023-01-30T16:09:19.551Z,97438.18
2023-01-30T16:19:26.785Z,97444.27
2023-01-30T16:29:34.778Z,97451.23
2023-01-30T16:39:40.324Z,97460.83
2023-01-30T16:49:45.288Z,97468.15
2023-01-30T16:59:50.452Z,97469.63
2023-01-30T17:09:56.512Z,97478.52
2023-01-30T17:20:02.484Z,97471.40
2023-01-30T17:30:10.047Z,97464.42
2023-01-30T17:40:15.645Z,97456.02
2023-01-30T17:50:21.498Z,97463.45
2023-01-30T18:00:27.349Z,97467.67
2023-01-30T18:10:32.798Z,97458.23
2023-01-30T18:20:38.344Z,97457.13
2023-01-30T18:30:44.143Z,97450.33
2023-01-30T18:40:50.259Z,97439.64
2023-01-30T18:50:55.781Z,97440.52
2023-01-30T19:01:01.417Z,97442.04
2023-01-30T19:11:28.438Z,97454.09
2023-01-30T19:21:34.611Z,97454.77
2023-01-30T19:31:40.811Z,97462.52
2023-01-30T19:51:51.542Z,97472.03
2023-01-30T20:01:57.321Z,97490.29
2023-01-30T20:12:02.922Z,97494.13
2023-01-30T20:22:08.630Z,97497.58
2023-01-30T20:32:14.317Z,97494.13
2023-01-30T20:42:20.214Z,97508.38
2023-01-30T20:52:25.731Z,97517.72
2023-01-30T21:02:31.377Z,97529.40
2023-01-30T21:12:37.384Z,97543.69
2023-01-30T21:22:42.891Z,97551.91
2023-01-30T21:32:48.568Z,97566.61
2023-01-30T21:43:12.008Z,97587.16
2023-01-30T21:53:17.608Z,97606.61
2023-01-30T22:03:27.022Z,97617.42
2023-01-30T22:13:32.511Z,97634.48
2023-01-30T22:23:39.869Z,97657.66
2023-01-30T22:33:46.158Z,97661.67
2023-01-30T22:43:52.257Z,97669.42
2023-01-30T22:53:58.593Z,97684.73
2023-01-30T23:04:05.719Z,97686.42
2023-01-30T23:14:12.621Z,97681.90
2023-01-30T23:24:19.588Z,97692.56
2023-01-30T23:34:25.307Z,97697.80
2023-01-30T23:44:30.957Z,97706.30
2023-01-30T23:54:36.390Z,97709.98
